sensor_id;sensor_type;location;lat;lon;timestamp;pressure;altitude;pressure_sealevel;temperature;humidity
21594;BME280;10959;51.328;7.322;2023-11-18T00:00:05;99755.16;;;4.16;75.24
21594;BME280;10959;51.328;7.322;2023-11-18T00:02:39;99749.59;;;4.18;75.12
21594;BME280;10959;51.328;7.322;2023-11-18T00:05:08;99755.31;;;4.15;75.84
21594;BME280;10959;51.328;7.322;2023-11-18T00:07:34;99757.63;;;4.18;75.63
21594;BME280;10959;51.328;7.322;2023-11-18T00:10:01;99750.06;;;4.21;75.23
21594;BME280;10959;51.328;7.322;2023-11-18T00:12:29;99756.78;;;4.17;75.47
21594;BME280;10959;51.328;7.322;2023-11-18T00:14:56;99762.34;;;4.16;75.72
21594;BME280;10959;51.328;7.322;2023-11-18T00:17:22;99758.66;;;4.17;75.40
21594;BME280;10959;51.328;7.322;2023-11-18T00:19:50;99763.34;;;4.15;75.16
21594;BME280;10959;51.328;7.322;2023-11-18T00:22:16;99771.22;;;4.16;75.98
21594;BME280;10959;51.328;7.322;2023-11-18T00:24:43;99767.34;;;4.19;75.82
21594;BME280;10959;51.328;7.322;2023-11-18T00:27:09;99767.78;;;4.22;75.85
21594;BME280;10959;51.328;7.322;2023-11-18T00:29:36;99757.72;;;4.24;75.70
21594;BME280;10959;51.328;7.322;2023-11-18T00:32:04;99757.34;;;4.27;75.26
21594;BME280;10959;51.328;7.322;2023-11-18T00:34:30;99754.28;;;4.30;75.40
21594;BME280;10959;51.328;7.322;2023-11-18T00:36:58;99749.03;;;4.22;75.43
21594;BME280;10959;51.328;7.322;2023-11-18T00:39:26;99751.72;;;4.22;75.73
21594;BME280;10959;51.328;7.322;2023-11-18T00:41:52;99749.31;;;4.27;75.42
21594;BME280;10959;51.328;7.322;2023-11-18T00:44:21;99746.63;;;4.27;75.21
21594;BME280;10959;51.328;7.322;2023-11-18T00:46:47;99749.94;;;4.29;75.18
21594;BME280;10959;51.328;7.322;2023-11-18T00:49:14;99742.19;;;4.34;75.32
21594;BME280;10959;51.328;7.322;2023-11-18T00:51:40;99738.09;;;4.38;75.17
21594;BME280;10959;51.328;7.322;2023-11-18T00:54:08;99737.06;;;4.39;74.62
21594;BME280;10959;51.328;7.322;2023-11-18T00:56:35;99740.13;;;4.36;74.78
21594;BME280;10959;51.328;7.322;2023-11-18T00:59:01;99731.47;;;4.34;74.54
21594;BME280;10959;51.328;7.322;2023-11-18T01:01:28;99730.81;;;4.32;74.95
21594;BME280;10959;51.328;7.322;2023-11-18T01:03:54;99720.47;;;4.29;74.37
21594;BME280;10959;51.328;7.322;2023-11-18T01:06:24;99713.22;;;4.23;74.69
21594;BME280;10959;51.328;7.322;2023-11-18T01:08:51;99728.50;;;4.29;74.82
21594;BME280;10959;51.328;7.322;2023-11-18T01:11:19;99724.66;;;4.32;74.76
21594;BME280;10959;51.328;7.322;2023-11-18T01:13:47;99726.88;;;4.28;74.45
21594;BME280;10959;51.328;7.322;2023-11-18T01:16:14;99723.91;;;4.23;74.41
21594;BME280;10959;51.328;7.322;2023-11-18T01:18:41;99730.47;;;4.21;74.28
21594;BME280;10959;51.328;7.322;2023-11-18T01:21:07;99732.31;;;4.20;74.85
21594;BME280;10959;51.328;7.322;2023-11-18T01:23:34;99728.19;;;4.18;74.65
21594;BME280;10959;51.328;7.322;2023-11-18T01:26:01;99730.78;;;4.11;74.57
21594;BME280;10959;51.328;7.322;2023-11-18T01:28:31;99725.44;;;4.11;74.72
21594;BME280;10959;51.328;7.322;2023-11-18T01:31:01;99729.41;;;4.15;74.71
21594;BME280;10959;51.328;7.322;2023-11-18T01:33:29;99728.63;;;4.21;74.70
21594;BME280;10959;51.328;7.322;2023-11-18T01:35:55;99743.50;;;4.24;74.49
21594;BME280;10959;51.328;7.322;2023-11-18T01:38:22;99745.78;;;4.27;74.47
21594;BME280;10959;51.328;7.322;2023-11-18T01:40:48;99749.13;;;4.29;74.26
21594;BME280;10959;51.328;7.322;2023-11-18T01:43:15;99749.94;;;4.29;74.08
21594;BME280;10959;51.328;7.322;2023-11-18T01:45:44;99755.28;;;4.29;74.02
21594;BME280;10959;51.328;7.322;2023-11-18T01:48:11;99763.16;;;4.31;74.01
21594;BME280;10959;51.328;7.322;2023-11-18T01:50:39;99763.59;;;4.34;73.81
21594;BME280;10959;51.328;7.322;2023-11-18T01:53:07;99758.41;;;4.33;73.88
21594;BME280;10959;51.328;7.322;2023-11-18T01:55:35;99753.66;;;4.28;74.08
21594;BME280;10959;51.328;7.322;2023-11-18T01:58:02;99764.72;;;4.25;74.19
21594;BME280;10959;51.328;7.322;2023-11-18T02:00:33;99759.09;;;4.20;73.83
21594;BME280;10959;51.328;7.322;2023-11-18T02:03:01;99758.47;;;4.18;74.07
21594;BME280;10959;51.328;7.322;2023-11-18T02:05:29;99763.34;;;4.15;74.42
21594;BME280;10959;51.328;7.322;2023-11-18T02:07:58;99759.22;;;4.12;74.10
21594;BME280;10959;51.328;7.322;2023-11-18T02:10:25;99755.91;;;4.10;73.91
21594;BME280;10959;51.328;7.322;2023-11-18T02:12:55;99745.03;;;3.97;73.75
21594;BME280;10959;51.328;7.322;2023-11-18T02:15:26;99751.00;;;3.99;74.58
21594;BME280;10959;51.328;7.322;2023-11-18T02:17:55;99743.81;;;4.00;74.10
21594;BME280;10959;51.328;7.322;2023-11-18T02:20:25;99742.97;;;3.99;73.96
21594;BME280;10959;51.328;7.322;2023-11-18T02:22:52;99737.84;;;3.98;74.71
21594;BME280;10959;51.328;7.322;2023-11-18T02:25:21;99737.63;;;3.99;74.42
21594;BME280;10959;51.328;7.322;2023-11-18T02:27:53;99732.66;;;3.96;74.34
21594;BME280;10959;51.328;7.322;2023-11-18T02:30:20;99737.63;;;3.99;74.51
21594;BME280;10959;51.328;7.322;2023-11-18T02:32:52;99736.63;;;4.00;74.06
21594;BME280;10959;51.328;7.322;2023-11-18T02:35:24;99740.59;;;4.04;74.43
21594;BME280;10959;51.328;7.322;2023-11-18T02:37:53;99735.25;;;4.04;74.33
21594;BME280;10959;51.328;7.322;2023-11-18T02:40:26;99746.84;;;4.11;73.90
21594;BME280;10959;51.328;7.322;2023-11-18T02:42:57;99741.09;;;4.14;74.14
21594;BME280;10959;51.328;7.322;2023-11-18T02:45:25;99739.63;;;4.12;74.30
21594;BME280;10959;51.328;7.322;2023-11-18T02:47:52;99733.66;;;4.10;73.97
21594;BME280;10959;51.328;7.322;2023-11-18T02:50:22;99732.44;;;4.12;74.29
21594;BME280;10959;51.328;7.322;2023-11-18T02:52:49;99734.94;;;4.14;74.31
21594;BME280;10959;51.328;7.322;2023-11-18T02:55:15;99735.75;;;4.14;74.20
21594;BME280;10959;51.328;7.322;2023-11-18T02:57:41;99731.22;;;4.15;74.00
21594;BME280;10959;51.328;7.322;2023-11-18T03:00:10;99731.69;;;4.18;73.98
21594;BME280;10959;51.328;7.322;2023-11-18T03:02:42;99724.50;;;4.19;73.90
21594;BME280;10959;51.328;7.322;2023-11-18T03:05:09;99726.97;;;4.20;74.39
21594;BME280;10959;51.328;7.322;2023-11-18T03:07:36;99728.00;;;4.19;74.63
21594;BME280;10959;51.328;7.322;2023-11-18T03:10:04;99738.72;;;4.19;73.93
21594;BME280;10959;51.328;7.322;2023-11-18T03:12:36;99734.19;;;4.20;74.53
21594;BME280;10959;51.328;7.322;2023-11-18T03:15:04;99735.47;;;4.24;74.52
21594;BME280;10959;51.328;7.322;2023-11-18T03:17:31;99723.38;;;4.28;74.17
21594;BME280;10959;51.328;7.322;2023-11-18T03:19:58;99715.13;;;4.29;74.20
21594;BME280;10959;51.328;7.322;2023-11-18T03:22:25;99707.38;;;4.34;74.55
21594;BME280;10959;51.328;7.322;2023-11-18T03:24:51;99708.84;;;4.37;74.63
21594;BME280;10959;51.328;7.322;2023-11-18T03:27:18;99702.91;;;4.41;74.23
21594;BME280;10959;51.328;7.322;2023-11-18T03:29:44;99695.91;;;4.40;74.49
21594;BME280;10959;51.328;7.322;2023-11-18T03:32:11;99688.94;;;4.46;74.34
21594;BME280;10959;51.328;7.322;2023-11-18T03:34:39;99693.91;;;4.49;74.11
21594;BME280;10959;51.328;7.322;2023-11-18T03:37:05;99690.66;;;4.54;74.36
21594;BME280;10959;51.328;7.322;2023-11-18T03:39:32;99696.47;;;4.57;74.09
21594;BME280;10959;51.328;7.322;2023-11-18T03:41:58;99680.22;;;4.59;73.89
21594;BME280;10959;51.328;7.322;2023-11-18T03:44:25;99678.16;;;4.61;73.95
21594;BME280;10959;51.328;7.322;2023-11-18T03:46:51;99679.00;;;4.61;73.88
21594;BME280;10959;51.328;7.322;2023-11-18T03:49:18;99679.00;;;4.61;74.10
21594;BME280;10959;51.328;7.322;2023-11-18T03:51:46;99684.34;;;4.61;74.39
21594;BME280;10959;51.328;7.322;2023-11-18T03:54:13;99689.72;;;4.61;74.01
21594;BME280;10959;51.328;7.322;2023-11-18T03:56:40;99686.81;;;4.63;74.17
21594;BME280;10959;51.328;7.322;2023-11-18T03:59:07;99683.97;;;4.64;74.35
21594;BME280;10959;51.328;7.322;2023-11-18T04:01:34;99696.13;;;4.67;74.03
21594;BME280;10959;51.328;7.322;2023-11-18T04:04:01;99694.28;;;4.67;73.97
21594;BME280;10959;51.328;7.322;2023-11-18T04:06:29;99697.81;;;4.68;74.06
21594;BME280;10959;51.328;7.322;2023-11-18T04:08:57;99703.34;;;4.66;74.19
21594;BME280;10959;51.328;7.322;2023-11-18T04:11:24;99714.72;;;4.68;74.44
21594;BME280;10959;51.328;7.322;2023-11-18T04:13:50;99710.81;;;4.71;74.17
21594;BME280;10959;51.328;7.322;2023-11-18T04:16:17;99705.84;;;4.68;74.05
21594;BME280;10959;51.328;7.322;2023-11-18T04:18:45;99698.03;;;4.73;74.19
21594;BME280;10959;51.328;7.322;2023-11-18T04:21:12;99700.97;;;4.78;73.82
21594;BME280;10959;51.328;7.322;2023-11-18T04:23:40;99706.31;;;4.78;74.02
21594;BME280;10959;51.328;7.322;2023-11-18T04:26:08;99701.63;;;4.80;74.24
21594;BME280;10959;51.328;7.322;2023-11-18T04:28:35;99703.47;;;4.79;74.19
21594;BME280;10959;51.328;7.322;2023-11-18T04:31:02;99700.56;;;4.81;74.34
21594;BME280;10959;51.328;7.322;2023-11-18T04:33:30;99703.06;;;4.82;74.51
21594;BME280;10959;51.328;7.322;2023-11-18T04:35:57;99698.56;;;4.83;74.40
21594;BME280;10959;51.328;7.322;2023-11-18T04:38:24;99681.66;;;4.82;74.28
21594;BME280;10959;51.328;7.322;2023-11-18T04:40:51;99687.00;;;4.82;74.07
21594;BME280;10959;51.328;7.322;2023-11-18T04:43:20;99680.63;;;4.83;74.52
21594;BME280;10959;51.328;7.322;2023-11-18T04:45:47;99671.75;;;4.83;74.45
21594;BME280;10959;51.328;7.322;2023-11-18T04:48:14;99667.41;;;4.82;74.04
21594;BME280;10959;51.328;7.322;2023-11-18T04:50:41;99664.69;;;4.75;74.62
21594;BME280;10959;51.328;7.322;2023-11-18T04:53:08;99656.47;;;4.77;74.24
21594;BME280;10959;51.328;7.322;2023-11-18T04:55:36;99645.28;;;4.73;74.50
21594;BME280;10959;51.328;7.322;2023-11-18T04:58:02;99637.44;;;4.72;74.56
21594;BME280;10959;51.328;7.322;2023-11-18T05:00:32;99649.44;;;4.76;74.72
21594;BME280;10959;51.328;7.322;2023-11-18T05:02:58;99653.97;;;4.75;74.19
21594;BME280;10959;51.328;7.322;2023-11-18T05:05:25;99645.75;;;4.77;74.58
21594;BME280;10959;51.328;7.322;2023-11-18T05:07:51;99640.16;;;4.78;74.63
21594;BME280;10959;51.328;7.322;2023-11-18T05:10:18;99632.97;;;4.79;74.46
21594;BME280;10959;51.328;7.322;2023-11-18T05:12:44;99630.91;;;4.81;74.28
21594;BME280;10959;51.328;7.322;2023-11-18T05:15:18;99625.56;;;4.81;74.30
21594;BME280;10959;51.328;7.322;2023-11-18T05:17:46;99622.88;;;4.81;74.67
21594;BME280;10959;51.328;7.322;2023-11-18T05:20:12;99619.38;;;4.80;74.37
21594;BME280;10959;51.328;7.322;2023-11-18T05:22:39;99621.03;;;4.81;74.59
21594;BME280;10959;51.328;7.322;2023-11-18T05:25:06;99611.97;;;4.82;74.29
21594;BME280;10959;51.328;7.322;2023-11-18T05:27:35;99603.72;;;4.84;74.48
21594;BME280;10959;51.328;7.322;2023-11-18T05:30:02;99599.41;;;4.83;74.57
21594;BME280;10959;51.328;7.322;2023-11-18T05:32:30;99598.56;;;4.82;74.49
21594;BME280;10959;51.328;7.322;2023-11-18T05:34:58;99592.19;;;4.83;74.33
21594;BME280;10959;51.328;7.322;2023-11-18T05:37:26;99594.06;;;4.83;74.46
21594;BME280;10959;51.328;7.322;2023-11-18T05:39:54;99586.84;;;4.83;74.49
21594;BME280;10959;51.328;7.322;2023-11-18T05:42:24;99602.09;;;4.83;74.62
21594;BME280;10959;51.328;7.322;2023-11-18T05:44:51;99604.56;;;4.84;74.34
21594;BME280;10959;51.328;7.322;2023-11-18T05:47:24;99605.72;;;4.75;74.33
21594;BME280;10959;51.328;7.322;2023-11-18T05:49:51;99606.78;;;4.74;74.57
21594;BME280;10959;51.328;7.322;2023-11-18T05:52:18;99603.25;;;4.74;74.73
21594;BME280;10959;51.328;7.322;2023-11-18T05:54:46;99601.41;;;4.74;74.69
21594;BME280;10959;51.328;7.322;2023-11-18T05:57:13;99609.88;;;4.78;74.76
21594;BME280;10959;51.328;7.322;2023-11-18T05:59:39;99604.50;;;4.78;74.96
21594;BME280;10959;51.328;7.322;2023-11-18T06:02:06;99607.41;;;4.76;75.12
21594;BME280;10959;51.328;7.322;2023-11-18T06:04:33;99607.84;;;4.80;74.94
21594;BME280;10959;51.328;7.322;2023-11-18T06:07:00;99602.91;;;4.83;75.01
21594;BME280;10959;51.328;7.322;2023-11-18T06:09:29;99607.06;;;4.86;74.84
21594;BME280;10959;51.328;7.322;2023-11-18T06:11:55;99608.28;;;4.90;75.15
21594;BME280;10959;51.328;7.322;2023-11-18T06:14:22;99600.06;;;4.91;74.96
21594;BME280;10959;51.328;7.322;2023-11-18T06:16:48;99595.72;;;4.90;75.19
21594;BME280;10959;51.328;7.322;2023-11-18T06:19:16;99599.88;;;4.93;74.94
21594;BME280;10959;51.328;7.322;2023-11-18T06:21:42;99602.53;;;4.93;75.24
21594;BME280;10959;51.328;7.322;2023-11-18T06:24:09;99590.59;;;4.89;75.42
21594;BME280;10959;51.328;7.322;2023-11-18T06:26:37;99587.69;;;4.90;75.40
21594;BME280;10959;51.328;7.322;2023-11-18T06:29:04;99581.50;;;4.90;75.42
21594;BME280;10959;51.328;7.322;2023-11-18T06:31:31;99573.28;;;4.91;75.13
21594;BME280;10959;51.328;7.322;2023-11-18T06:33:58;99566.69;;;4.94;75.20
21594;BME280;10959;51.328;7.322;2023-11-18T06:36:24;99562.16;;;4.94;75.54
21594;BME280;10959;51.328;7.322;2023-11-18T06:38:52;99556.41;;;4.97;75.51
21594;BME280;10959;51.328;7.322;2023-11-18T06:41:22;99566.53;;;5.02;75.21
21594;BME280;10959;51.328;7.322;2023-11-18T06:43:52;99565.50;;;5.03;75.25
21594;BME280;10959;51.328;7.322;2023-11-18T06:46:23;99575.00;;;5.06;75.61
21594;BME280;10959;51.328;7.322;2023-11-18T06:48:51;99578.72;;;5.11;75.35
21594;BME280;10959;51.328;7.322;2023-11-18T06:51:19;99575.03;;;5.12;75.50
21594;BME280;10959;51.328;7.322;2023-11-18T06:53:48;99572.97;;;5.14;75.29
21594;BME280;10959;51.328;7.322;2023-11-18T06:56:15;99564.75;;;5.16;75.18
21594;BME280;10959;51.328;7.322;2023-11-18T06:58:42;99569.91;;;5.17;75.18
21594;BME280;10959;51.328;7.322;2023-11-18T07:01:12;99581.06;;;5.21;75.20
21594;BME280;10959;51.328;7.322;2023-11-18T07:03:40;99575.50;;;5.22;75.18
21594;BME280;10959;51.328;7.322;2023-11-18T07:06:08;99576.75;;;5.26;75.09
21594;BME280;10959;51.328;7.322;2023-11-18T07:08:35;99572.44;;;5.25;75.05
21594;BME280;10959;51.328;7.322;2023-11-18T07:11:01;99577.19;;;5.30;75.01
21594;BME280;10959;51.328;7.322;2023-11-18T07:13:28;99565.63;;;5.29;75.04
21594;BME280;10959;51.328;7.322;2023-11-18T07:15:55;99580.06;;;5.28;75.16
21594;BME280;10959;51.328;7.322;2023-11-18T07:18:24;99584.00;;;5.32;75.17
21594;BME280;10959;51.328;7.322;2023-11-18T07:20:51;99588.34;;;5.33;75.03
21594;BME280;10959;51.328;7.322;2023-11-18T07:23:17;99601.34;;;5.36;75.15
21594;BME280;10959;51.328;7.322;2023-11-18T07:25:44;99594.31;;;5.35;75.15
21594;BME280;10959;51.328;7.322;2023-11-18T07:28:10;99590.41;;;5.38;75.06
21594;BME280;10959;51.328;7.322;2023-11-18T07:30:37;99586.31;;;5.42;75.10
21594;BME280;10959;51.328;7.322;2023-11-18T07:33:03;99585.72;;;5.46;75.20
21594;BME280;10959;51.328;7.322;2023-11-18T07:35:31;99584.69;;;5.47;74.88
21594;BME280;10959;51.328;7.322;2023-11-18T07:37:58;99582.81;;;5.48;75.14
21594;BME280;10959;51.328;7.322;2023-11-18T07:40:25;99592.97;;;5.52;75.18
21594;BME280;10959;51.328;7.322;2023-11-18T07:42:54;99592.56;;;5.56;75.14
21594;BME280;10959;51.328;7.322;2023-11-18T07:45:21;99582.63;;;5.56;75.21
21594;BME280;10959;51.328;7.322;2023-11-18T07:47:49;99592.97;;;5.59;75.30
21594;BME280;10959;51.328;7.322;2023-11-18T07:50:16;99579.78;;;5.64;75.36
21594;BME280;10959;51.328;7.322;2023-11-18T07:52:46;99581.84;;;5.69;75.27
21594;BME280;10959;51.328;7.322;2023-11-18T07:55:13;99576.09;;;5.72;75.38
21594;BME280;10959;51.328;7.322;2023-11-18T07:57:39;99573.66;;;5.77;75.33
21594;BME280;10959;51.328;7.322;2023-11-18T08:00:07;99559.59;;;5.81;75.01
21594;BME280;10959;51.328;7.322;2023-11-18T08:02:34;99557.34;;;5.85;75.19
21594;BME280;10959;51.328;7.322;2023-11-18T08:05:02;99557.53;;;5.83;75.32
21594;BME280;10959;51.328;7.322;2023-11-18T08:07:32;99555.53;;;5.85;75.46
21594;BME280;10959;51.328;7.322;2023-11-18T08:10:00;99556.97;;;5.88;75.57
21594;BME280;10959;51.328;7.322;2023-11-18T08:12:29;99555.31;;;5.87;75.68
21594;BME280;10959;51.328;7.322;2023-11-18T08:14:55;99562.94;;;5.90;75.55
21594;BME280;10959;51.328;7.322;2023-11-18T08:17:23;99557.19;;;5.93;75.52
21594;BME280;10959;51.328;7.322;2023-11-18T08:19:50;99572.03;;;5.95;75.53
21594;BME280;10959;51.328;7.322;2023-11-18T08:22:18;99565.22;;;5.93;75.77
21594;BME280;10959;51.328;7.322;2023-11-18T08:24:48;99573.94;;;5.95;75.75
21594;BME280;10959;51.328;7.322;2023-11-18T08:27:16;99570.44;;;6.01;75.53
21594;BME280;10959;51.328;7.322;2023-11-18T08:29:43;99568.56;;;6.08;75.50
21594;BME280;10959;51.328;7.322;2023-11-18T08:32:11;99573.31;;;6.13;75.49
21594;BME280;10959;51.328;7.322;2023-11-18T08:34:38;99566.09;;;6.13;75.54
21594;BME280;10959;51.328;7.322;2023-11-18T08:37:06;99561.56;;;6.07;75.66
21594;BME280;10959;51.328;7.322;2023-11-18T08:39:32;99574.16;;;6.13;75.62
21594;BME280;10959;51.328;7.322;2023-11-18T08:41:58;99570.22;;;6.16;75.78
21594;BME280;10959;51.328;7.322;2023-11-18T08:44:26;99566.91;;;6.20;75.64
21594;BME280;10959;51.328;7.322;2023-11-18T08:46:53;99566.31;;;6.25;75.65
21594;BME280;10959;51.328;7.322;2023-11-18T08:49:20;99580.78;;;6.30;75.49
21594;BME280;10959;51.328;7.322;2023-11-18T08:51:47;99572.91;;;6.29;75.56
21594;BME280;10959;51.328;7.322;2023-11-18T08:54:14;99575.81;;;6.27;75.58
21594;BME280;10959;51.328;7.322;2023-11-18T08:56:50;99572.09;;;6.28;75.50
21594;BME280;10959;51.328;7.322;2023-11-18T08:59:18;99554.94;;;6.29;75.66
21594;BME280;10959;51.328;7.322;2023-11-18T09:01:51;99560.72;;;6.33;75.52
21594;BME280;10959;51.328;7.322;2023-11-18T09:04:21;99556.78;;;6.35;75.56
21594;BME280;10959;51.328;7.322;2023-11-18T09:06:49;99556.38;;;6.38;75.08
21594;BME280;10959;51.328;7.322;2023-11-18T09:09:17;99559.50;;;6.42;75.33
21594;BME280;10959;51.328;7.322;2023-11-18T09:11:52;99547.06;;;6.41;75.52
21594;BME280;10959;51.328;7.322;2023-11-18T09:14:18;99551.00;;;6.45;75.50
21594;BME280;10959;51.328;7.322;2023-11-18T09:16:45;99549.75;;;6.47;75.40
21594;BME280;10959;51.328;7.322;2023-11-18T09:19:12;99541.09;;;6.52;75.39
21594;BME280;10959;51.328;7.322;2023-11-18T09:21:39;99536.56;;;6.52;75.37
21594;BME280;10959;51.328;7.322;2023-11-18T09:24:07;99535.31;;;6.55;75.59
21594;BME280;10959;51.328;7.322;2023-11-18T09:26:37;99528.06;;;6.55;75.42
21594;BME280;10959;51.328;7.322;2023-11-18T09:29:04;99521.47;;;6.51;75.49
21594;BME280;10959;51.328;7.322;2023-11-18T09:31:33;99513.16;;;6.53;75.87
21594;BME280;10959;51.328;7.322;2023-11-18T09:34:01;99518.78;;;6.51;75.80
21594;BME280;10959;51.328;7.322;2023-11-18T09:36:32;99522.06;;;6.53;75.79
21594;BME280;10959;51.328;7.322;2023-11-18T09:39:01;99512.56;;;6.57;75.73
21594;BME280;10959;51.328;7.322;2023-11-18T09:41:28;99501.81;;;6.57;75.97
21594;BME280;10959;51.328;7.322;2023-11-18T09:43:55;99503.91;;;6.55;75.82
21594;BME280;10959;51.328;7.322;2023-11-18T09:46:28;99504.31;;;6.52;76.24
21594;BME280;10959;51.328;7.322;2023-11-18T09:49:06;99507.78;;;6.53;76.08
21594;BME280;10959;51.328;7.322;2023-11-18T09:51:42;99516.50;;;6.55;76.12
21594;BME280;10959;51.328;7.322;2023-11-18T09:54:16;99509.28;;;6.55;76.17
21594;BME280;10959;51.328;7.322;2023-11-18T09:56:51;99513.59;;;6.56;76.22
21594;BME280;10959;51.328;7.322;2023-11-18T09:59:25;99513.38;;;6.65;76.12
21594;BME280;10959;51.328;7.322;2023-11-18T10:02:00;99512.13;;;6.67;76.09
21594;BME280;10959;51.328;7.322;2023-11-18T10:04:29;99502.81;;;6.70;76.12
21594;BME280;10959;51.328;7.322;2023-11-18T10:06:58;99502.59;;;6.71;76.12
21594;BME280;10959;51.328;7.322;2023-11-18T10:09:28;99499.28;;;6.76;76.23
21594;BME280;10959;51.328;7.322;2023-11-18T10:11:55;99499.69;;;6.79;76.15
21594;BME280;10959;51.328;7.322;2023-11-18T10:14:25;99509.03;;;6.77;76.34
21594;BME280;10959;51.328;7.322;2023-11-18T10:16:52;99509.41;;;6.80;76.60
21594;BME280;10959;51.328;7.322;2023-11-18T10:19:19;99501.75;;;6.84;76.46
21594;BME280;10959;51.328;7.322;2023-11-18T10:21:46;99482.72;;;6.85;76.65
21594;BME280;10959;51.328;7.322;2023-11-18T10:24:15;99481.06;;;6.91;76.40
21594;BME280;10959;51.328;7.322;2023-11-18T10:26:45;99471.53;;;6.95;76.36
21594;BME280;10959;51.328;7.322;2023-11-18T10:29:14;99468.84;;;6.95;76.43
21594;BME280;10959;51.328;7.322;2023-11-18T10:31:43;99458.28;;;6.93;76.57
21594;BME280;10959;51.328;7.322;2023-11-18T10:34:12;99451.25;;;6.92;76.67
21594;BME280;10959;51.328;7.322;2023-11-18T10:36:40;99452.28;;;6.98;76.63
21594;BME280;10959;51.328;7.322;2023-11-18T10:39:11;99447.69;;;7.05;76.45
21594;BME280;10959;51.328;7.322;2023-11-18T10:41:43;99446.84;;;7.04;76.57
21594;BME280;10959;51.328;7.322;2023-11-18T10:44:13;99442.09;;;7.06;76.71
21594;BME280;10959;51.328;7.322;2023-11-18T10:46:41;99454.03;;;7.17;76.53
21594;BME280;10959;51.328;7.322;2023-11-18T10:49:07;99430.88;;;7.16;76.45
21594;BME280;10959;51.328;7.322;2023-11-18T10:51:35;99426.13;;;7.18;76.35
21594;BME280;10959;51.328;7.322;2023-11-18T10:54:04;99425.94;;;7.13;76.42
21594;BME280;10959;51.328;7.322;2023-11-18T10:56:47;99416.38;;;7.17;76.46
21594;BME280;10959;51.328;7.322;2023-11-18T10:59:14;99411.81;;;7.24;76.44
21594;BME280;10959;51.328;7.322;2023-11-18T11:01:42;99403.06;;;7.29;76.14
21594;BME280;10959;51.328;7.322;2023-11-18T11:04:09;99406.16;;;7.32;76.26
21594;BME280;10959;51.328;7.322;2023-11-18T11:06:40;99398.72;;;7.34;75.89
21594;BME280;10959;51.328;7.322;2023-11-18T11:09:07;99392.28;;;7.35;75.99
21594;BME280;10959;51.328;7.322;2023-11-18T11:11:46;99394.38;;;7.33;76.19
21594;BME280;10959;51.328;7.322;2023-11-18T11:14:16;99390.81;;;7.39;76.07
21594;BME280;10959;51.328;7.322;2023-11-18T11:16:47;99388.91;;;7.46;75.90
21594;BME280;10959;51.328;7.322;2023-11-18T11:19:25;99366.94;;;7.49;75.78
21594;BME280;10959;51.328;7.322;2023-11-18T11:21:59;99355.75;;;7.52;75.96
21594;BME280;10959;51.328;7.322;2023-11-18T11:24:37;99354.06;;;7.51;76.02
21594;BME280;10959;51.328;7.322;2023-11-18T11:27:14;99360.69;;;7.55;75.92
21594;BME280;10959;51.328;7.322;2023-11-18T11:29:59;99361.72;;;7.54;75.48
21594;BME280;10959;51.328;7.322;2023-11-18T11:32:38;99365.00;;;7.56;75.47
21594;BME280;10959;51.328;7.322;2023-11-18T11:35:10;99375.16;;;7.54;75.72
21594;BME280;10959;51.328;7.322;2023-11-18T11:37:44;99377.81;;;7.61;75.86
21594;BME280;10959;51.328;7.322;2023-11-18T11:40:13;99369.50;;;7.62;75.42
21594;BME280;10959;51.328;7.322;2023-11-18T11:42:48;99368.47;;;7.63;75.48
21594;BME280;10959;51.328;7.322;2023-11-18T11:45:22;99375.50;;;7.64;75.22
21594;BME280;10959;51.328;7.322;2023-11-18T11:47:54;99368.63;;;7.68;75.47
21594;BME280;10959;51.328;7.322;2023-11-18T11:50:54;99367.00;;;7.67;75.10
21594;BME280;10959;51.328;7.322;2023-11-18T11:53:23;99365.94;;;7.68;75.20
21594;BME280;10959;51.328;7.322;2023-11-18T11:55:53;99372.38;;;7.67;75.66
21594;BME280;10959;51.328;7.322;2023-11-18T11:58:30;99374.00;;;7.68;75.43
21594;BME280;10959;51.328;7.322;2023-11-18T12:01:00;99374.63;;;7.70;75.66
21594;BME280;10959;51.328;7.322;2023-11-18T12:03:32;99359.72;;;7.68;75.71
21594;BME280;10959;51.328;7.322;2023-11-18T12:06:01;99360.56;;;7.68;75.91
21594;BME280;10959;51.328;7.322;2023-11-18T12:08:35;99347.09;;;7.68;75.56
21594;BME280;10959;51.328;7.322;2023-11-18T12:11:04;99351.88;;;7.66;75.68
21594;BME280;10959;51.328;7.322;2023-11-18T12:13:35;99358.69;;;7.69;75.79
21594;BME280;10959;51.328;7.322;2023-11-18T12:16:06;99351.84;;;7.73;75.73
21594;BME280;10959;51.328;7.322;2023-11-18T12:18:35;99358.84;;;7.74;76.01
21594;BME280;10959;51.328;7.322;2023-11-18T12:21:02;99359.22;;;7.78;75.74
21594;BME280;10959;51.328;7.322;2023-11-18T12:23:29;99357.97;;;7.80;75.74
21594;BME280;10959;51.328;7.322;2023-11-18T12:25:59;99352.75;;;7.85;75.88
21594;BME280;10959;51.328;7.322;2023-11-18T12:28:29;99350.06;;;7.85;75.79
21594;BME280;10959;51.328;7.322;2023-11-18T12:31:00;99332.47;;;7.83;76.12
21594;BME280;10959;51.328;7.322;2023-11-18T12:34:03;99323.63;;;7.76;76.03
21594;BME280;10959;51.328;7.322;2023-11-18T12:37:12;99304.66;;;7.70;76.43
21594;BME280;10959;51.328;7.322;2023-11-18T12:40:12;99293.88;;;7.70;76.07
21594;BME280;10959;51.328;7.322;2023-11-18T12:43:00;99281.91;;;7.66;76.28
21594;BME280;10959;51.328;7.322;2023-11-18T12:45:42;99271.13;;;7.66;76.04
21594;BME280;10959;51.328;7.322;2023-11-18T12:48:14;99256.78;;;7.72;76.43
21594;BME280;10959;51.328;7.322;2023-11-18T12:50:42;99266.72;;;7.72;76.52
21594;BME280;10959;51.328;7.322;2023-11-18T12:53:11;99250.38;;;7.73;76.24
21594;BME280;10959;51.328;7.322;2023-11-18T12:55:40;99244.97;;;7.73;76.33
21594;BME280;10959;51.328;7.322;2023-11-18T12:58:07;99244.97;;;7.73;76.61
21594;BME280;10959;51.328;7.322;2023-11-18T13:00:39;99243.53;;;7.71;76.64
21594;BME280;10959;51.328;7.322;2023-11-18T13:03:08;99239.59;;;7.73;76.62
21594;BME280;10959;51.328;7.322;2023-11-18T13:05:35;99224.19;;;7.81;76.64
21594;BME280;10959;51.328;7.322;2023-11-18T13:08:03;99229.19;;;7.77;76.31
21594;BME280;10959;51.328;7.322;2023-11-18T13:10:31;99225.66;;;7.77;76.68
21594;BME280;10959;51.328;7.322;2023-11-18T13:12:58;99201.91;;;7.73;76.47
21594;BME280;10959;51.328;7.322;2023-11-18T13:15:25;99190.75;;;7.70;76.55
21594;BME280;10959;51.328;7.322;2023-11-18T13:18:02;99184.63;;;7.63;76.80